Jonni Ritscher — A8JT7 — position and weather

sailwx.info

Track history (hours):
 
Tides and Currents Weather Stations Pressure Air Temp Water Temp Dewpoint Dewpoint Depression Visibility Wind Speed Wind Dir Waves Ship Positions

Jonni Ritscher

Last reported at 2018-May-26 07:21 UTC. Time now 2018-May-26 07:47 UTC.
Position N 52°19' E 003°08'.

Length 177 m; draft 8.5 m.

Type: Cargo ship. MMSI: 636091136.

Date/timePositionNaut miles runAvg speedWind from/ knotsBaromVisibWave heightAir tempDewpointWater temp
2018-May-26 07:21N 52°19' E 003°08'2016.1
2018-May-26 06:06N 52°35' E 003°27'1017.1
2018-May-26 05:30N 52°43' E 003°37'816.6
2018-May-26 05:00N 52°50' E 003°45'815.7
2018-May-26 04:30N 52°55' E 003°55'815.5
2018-May-26 03:59N 53°01' E 004°05'715.3
2018-May-26 03:31N 53°05' E 004°14'814.6
2018-May-26 02:59N 53°10' E 004°24'713.9
2018-May-26 02:30N 53°16' E 004°29'714.0
2018-May-26 02:00N 53°22' E 004°33'714.0
2018-May-26 01:30N 53°28' E 004°40'815.4
2018-May-26 01:00N 53°31' E 004°52'815.9
2018-May-26 00:30N 53°34' E 005°04'816.8
2018-May-26 00:00N 53°37' E 005°17'917.2
2018-May-25 23:30N 53°40' E 005°31'917.4
2018-May-25 23:00N 53°43' E 005°45'917.3
2018-May-25 22:30N 53°45' E 005°59'917.2
2018-May-25 22:00N 53°48' E 006°13'816.9
2018-May-25 21:30N 53°51' E 006°26'4515.3
2018-May-25 18:33N 53°56' E 007°43'115.8
2018-May-25 18:29N 53°55' E 007°43'713.5
2018-May-25 18:00N 53°51' E 007°52'612.5
2018-May-25 17:30N 53°48' E 008°01'816.6
2018-May-25 17:00N 53°40' E 008°06'5 1.7
2018-May-25 14:04N 53°36' E 008°09'0 0.0
2018-May-25 11:54N 53°36' E 008°09'0 0.0
2018-May-25 11:30N 53°36' E 008°09'0 0.0
2018-May-25 11:00N 53°36' E 008°09'0 0.0
2018-May-25 10:12N 53°36' E 008°09'0 0.0
2018-May-25 09:47N 53°36' E 008°09'0 0.0
2018-May-25 09:20N 53°36' E 008°09'0 0.0
2018-May-25 08:56N 53°36' E 008°09'0 0.0
2018-May-25 08:29N 53°36' E 008°09'0 0.0
2018-May-25 07:59N 53°36' E 008°09'0 0.0
2018-May-25 07:25N 53°36' E 008°09'0 0.0
2018-May-25 06:55N 53°36' E 008°09'0 0.0
2018-May-25 05:52N 53°36' E 008°09'0 0.0
2018-May-25 05:22N 53°36' E 008°09'0 0.0
2018-May-25 04:57N 53°36' E 008°09'0 0.0
2018-May-25 04:24N 53°36' E 008°09'0 0.0
2018-May-25 03:48N 53°36' E 008°09'0 0.0
2018-May-25 01:11N 53°36' E 008°09'0 0.0
2018-May-24 21:00N 53°36' E 008°09'0 0.0
2018-May-24 20:30N 53°36' E 008°09'0 0.0
2018-May-24 20:00N 53°36' E 008°09'0 0.0
2018-May-24 19:29N 53°36' E 008°09'0 0.0
2018-May-24 18:59N 53°36' E 008°09'0 0.5
2018-May-24 18:30N 53°36' E 008°10'3 5.5
2018-May-24 18:00N 53°38' E 008°08'917.1
2018-May-24 17:29N 53°46' E 008°02'511.2
2018-May-24 17:00N 53°49' E 007°55'4615.3
2018-May-24 14:00N 54°32' E 007°25'714.9
2018-May-24 13:30N 54°39' E 007°24'7015.5
2018-May-24 09:00N 55°49' E 007°24'815.8
2018-May-24 08:30N 55°56' E 007°29'7615.6
2018-May-24 03:38N 57°08' E 008°13'215.6
2018-May-24 03:30N 57°10' E 008°14'815.2
2018-May-24 03:00N 57°17' E 008°20'714.5
2018-May-24 02:30N 57°23' E 008°28'715.1
2018-May-24 02:00N 57°26' E 008°40'815.1
2018-May-24 01:29N 57°29' E 008°54'715.1
2018-May-24 01:00N 57°33' E 009°06'815.1
2018-May-24 00:30N 57°36' E 009°19'815.2
2018-May-24 00:00N 57°39' E 009°32'815.3
2018-May-23 23:30N 57°42' E 009°45'815.6
2018-May-23 23:00N 57°46' E 009°58'816.0
2018-May-23 22:30N 57°49' E 010°11'815.9
2018-May-23 22:00N 57°50' E 010°26'815.4
2018-May-23 21:30N 57°50' E 010°41'715.1
2018-May-23 21:00N 57°46' E 010°52'815.6
2018-May-23 20:30N 57°40' E 011°02'816.0
2018-May-23 20:00N 57°35' E 011°13'816.4
2018-May-23 19:30N 57°29' E 011°24'816.2
2018-May-23 19:00N 57°22' E 011°30'816.0
2018-May-23 18:30N 57°14' E 011°35'816.1
2018-May-23 18:00N 57°06' E 011°41'815.8
2018-May-23 17:29N 56°59' E 011°45'815.6
2018-May-23 17:00N 56°52' E 011°50'8914.3
2018-May-23 10:46N 55°27' E 010°57'515.4
2018-May-23 10:25N 55°23' E 011°02'615.5
2018-May-23 10:00N 55°17' E 011°04'812.4
2018-May-23 09:23N 55°09' E 010°60'615.3
2018-May-23 09:00N 55°04' E 010°60'714.9
2018-May-23 08:30N 54°57' E 010°54'917.7
2018-May-23 08:00N 54°48' E 010°50'816.1
2018-May-23 07:30N 54°40' E 010°48'917.4
2018-May-23 07:01N 54°36' E 011°01'816.9
2018-May-23 06:30N 54°35' E 011°15'917.1
2018-May-23 06:00N 54°31' E 011°29'816.9
2018-May-23 05:31N 54°28' E 011°42'816.7
2018-May-23 05:00N 54°26' E 011°56'815.4
2018-May-23 04:30N 54°26' E 012°09'714.4
2018-May-23 04:00N 54°33' E 012°15'714.0
2018-May-23 03:30N 54°38' E 012°22'714.7
2018-May-23 03:00N 54°43' E 012°32'714.6
2018-May-23 02:30N 54°47' E 012°43'714.6
2018-May-23 02:00N 54°49' E 012°55'714.7
2018-May-23 01:30N 54°52' E 013°07'815.1
2018-May-23 01:00N 54°55' E 013°19'715.0
2018-May-23 00:30N 54°57' E 013°31'714.6
2018-May-23 00:00N 55°00' E 013°43'714.6
2018-May-22 23:30N 55°03' E 013°55'714.3
2018-May-22 23:00N 55°07' E 014°05'714.9
2018-May-22 22:30N 55°12' E 014°14'815.1
2018-May-22 22:00N 55°18' E 014°23'815.1
2018-May-22 21:30N 55°24' E 014°31'714.9
2018-May-22 21:00N 55°29' E 014°41'815.0
2018-May-22 20:30N 55°33' E 014°52'715.0
2018-May-22 20:00N 55°37' E 015°03'714.9
2018-May-22 19:30N 55°41' E 015°14'714.9
2018-May-22 19:00N 55°45' E 015°26'714.9
2018-May-22 18:30N 55°48' E 015°37'715.0
2018-May-22 18:00N 55°52' E 015°49'815.5
2018-May-22 17:30N 55°56' E 016°01'815.6
2018-May-22 17:00N 55°60' E 016°13'815.7
2018-May-22 16:30N 56°04' E 016°25'815.8
2018-May-22 16:00N 56°08' E 016°37'815.5
2018-May-22 15:30N 56°12' E 016°49'815.6
2018-May-22 15:00N 56°16' E 017°00'815.5
2018-May-22 14:30N 56°21' E 017°12'24215.5
2018-May-21 22:57N 59°22' E 022°12'715.6
2018-May-21 22:31N 59°26' E 022°23'815.5
2018-May-21 22:00N 59°31' E 022°36'815.6
2018-May-21 21:30N 59°33' E 022°50'815.8
2018-May-21 21:00N 59°36' E 023°05'815.9
2018-May-21 20:30N 59°38' E 023°20'815.7
2018-May-21 20:00N 59°40' E 023°35'815.8
2018-May-21 19:30N 59°42' E 023°50'816.0
2018-May-21 19:00N 59°44' E 024°06'816.0
2018-May-21 18:30N 59°46' E 024°21'816.1
2018-May-21 18:01N 59°48' E 024°36'816.0
2018-May-21 17:31N 59°50' E 024°52'816.1
2018-May-21 17:00N 59°51' E 025°08'815.9
2018-May-21 16:31N 59°53' E 025°23'815.7
2018-May-21 16:01N 59°55' E 025°38'815.8
2018-May-21 15:31N 59°57' E 025°53'815.7
2018-May-21 15:00N 60°01' E 026°08'815.9
2018-May-21 14:29N 60°05' E 026°21'816.0
2018-May-21 14:01N 60°09' E 026°34'815.0
2018-May-21 13:30N 60°14' E 026°46'816.7
2018-May-21 13:00N 60°22' E 026°52'4 7.4
2018-May-21 12:30N 60°25' E 026°55'0 0.1
2018-May-21 11:58N 60°25' E 026°55'0 0.0
2018-May-21 11:28N 60°25' E 026°55'0 0.0
2018-May-21 11:00N 60°25' E 026°55'0 0.0
2018-May-21 10:30N 60°25' E 026°55'0 0.0
2018-May-21 10:00N 60°25' E 026°55'0 0.0
2018-May-21 09:30N 60°25' E 026°55'0 0.0
2018-May-21 09:00N 60°25' E 026°55'0 0.0
2018-May-21 08:29N 60°25' E 026°55'0 0.0
2018-May-21 08:01N 60°25' E 026°55'0 0.0
2018-May-21 07:26N 60°25' E 026°55'0 0.0
2018-May-21 06:57N 60°25' E 026°55'0 0.0
2018-May-21 06:29N 60°25' E 026°55'0 0.0
2018-May-21 05:58N 60°25' E 026°55'0 0.0
2018-May-21 05:28N 60°25' E 026°55'0 0.0
2018-May-21 04:58N 60°25' E 026°55'0 0.0
2018-May-21 04:28N 60°25' E 026°55'0 0.0
2018-May-21 04:00N 60°25' E 026°55'0 0.0
2018-May-21 03:30N 60°25' E 026°55'0 0.0
2018-May-21 03:00N 60°25' E 026°55'0 0.0
2018-May-21 02:30N 60°25' E 026°55'0 0.0
2018-May-21 01:54N 60°25' E 026°55'0 0.0
2018-May-21 01:28N 60°25' E 026°55'0 0.0
2018-May-21 00:56N 60°25' E 026°55'0 0.0
2018-May-21 00:29N 60°25' E 026°55'0 0.0
2018-May-20 23:59N 60°25' E 026°55'0 0.0
2018-May-20 23:28N 60°25' E 026°55'0 0.0
2018-May-20 22:58N 60°25' E 026°55'0 0.0
2018-May-20 22:30N 60°25' E 026°55'0 0.0
2018-May-20 21:58N 60°25' E 026°55'0 0.0
2018-May-20 21:28N 60°25' E 026°55'0 0.0
2018-May-20 21:00N 60°25' E 026°55'0 0.0
2018-May-20 20:27N 60°25' E 026°55'0 0.0
2018-May-20 20:00N 60°25' E 026°55'0 0.0
2018-May-20 19:30N 60°25' E 026°55'0 0.0
2018-May-20 19:00N 60°25' E 026°55'0 0.0
2018-May-20 18:29N 60°25' E 026°55'0 0.0
2018-May-20 17:59N 60°25' E 026°55'0 0.0
2018-May-20 17:28N 60°25' E 026°55'0 0.0
2018-May-20 16:59N 60°25' E 026°55'0 0.0
2018-May-20 16:25N 60°25' E 026°55'0 0.0
2018-May-20 15:58N 60°25' E 026°55'0 0.0
2018-May-20 15:25N 60°25' E 026°55'0 0.0
2018-May-20 14:55N 60°25' E 026°55'0 0.0
2018-May-20 14:28N 60°25' E 026°55'0 0.0
2018-May-20 14:00N 60°25' E 026°55'0 0.0
2018-May-20 13:30N 60°25' E 026°55'0 0.0
2018-May-20 13:00N 60°25' E 026°55'0 0.0
2018-May-20 12:30N 60°25' E 026°55'0 0.0
2018-May-20 12:00N 60°25' E 026°55'0 0.0
2018-May-20 11:29N 60°25' E 026°55'0 0.0
2018-May-20 10:59N 60°25' E 026°55'0 0.0
2018-May-20 10:29N 60°25' E 026°55'0 0.0
2018-May-20 09:59N 60°25' E 026°55'0 0.0
2018-May-20 09:28N 60°25' E 026°55'0 0.0
2018-May-20 08:58N 60°25' E 026°55'0 0.0
2018-May-20 08:28N 60°25' E 026°55'0 0.0
2018-May-20 07:58N 60°25' E 026°55'0 0.0
2018-May-20 07:25N 60°25' E 026°55'0 0.0
2018-May-20 06:57N 60°25' E 026°55'0 0.0
2018-May-20 06:27N 60°25' E 026°55'0 0.0
2018-May-20 06:00N 60°25' E 026°55'0 0.0
2018-May-20 05:30N 60°25' E 026°55'0 0.0
2018-May-20 04:56N 60°25' E 026°55'0 0.0
2018-May-20 04:30N 60°25' E 026°55'0 0.0
2018-May-20 03:59N 60°25' E 026°55'0 0.0
2018-May-20 03:30N 60°25' E 026°55'0 0.0
2018-May-20 03:00N 60°25' E 026°55'0 0.0
2018-May-20 02:19N 60°25' E 026°55'0 0.0
2018-May-20 01:55N 60°25' E 026°55'0 0.0
2018-May-20 01:25N 60°25' E 026°55'0 0.0
2018-May-20 00:55N 60°25' E 026°55'0 0.0
2018-May-20 00:25N 60°25' E 026°55'0 0.0
2018-May-20 00:00N 60°25' E 026°55'0 0.0
2018-May-19 23:30N 60°25' E 026°55'0 0.0
2018-May-19 22:59N 60°25' E 026°55'0 0.0
2018-May-19 22:30N 60°25' E 026°55'0 0.0
2018-May-19 21:59N 60°25' E 026°55'0 0.0
2018-May-19 21:29N 60°25' E 026°55'0 0.0
2018-May-19 20:56N 60°25' E 026°55'0 0.0
2018-May-19 20:29N 60°25' E 026°55'0 0.0
2018-May-19 19:58N 60°25' E 026°55'0 0.0
2018-May-19 19:27N 60°25' E 026°55'0 0.0
2018-May-19 18:54N 60°25' E 026°55'0 0.0
2018-May-19 18:28N 60°25' E 026°55'0 0.0
2018-May-19 17:58N 60°25' E 026°55'0 0.0
2018-May-19 17:28N 60°25' E 026°55'0 0.0
2018-May-19 17:00N 60°25' E 026°55'0 0.0
2018-May-19 16:30N 60°25' E 026°55'0 0.0
2018-May-19 16:00N 60°25' E 026°55'0 0.0
2018-May-19 15:29N 60°25' E 026°55'0 0.0
2018-May-19 14:59N 60°25' E 026°55'0 0.0
2018-May-19 14:29N 60°25' E 026°55'0 0.0
2018-May-19 13:59N 60°25' E 026°55'0 0.0
2018-May-19 13:29N 60°25' E 026°55'0 0.0
2018-May-19 12:59N 60°25' E 026°55'0 0.0
2018-May-19 12:28N 60°25' E 026°55'0 0.0
2018-May-19 11:58N 60°25' E 026°55'0 0.0
2018-May-19 11:28N 60°25' E 026°55'0 0.0
2018-May-19 10:58N 60°25' E 026°55'0 0.0
2018-May-19 10:30N 60°25' E 026°55'0 0.0
2018-May-19 10:00N 60°25' E 026°55'0 0.0
2018-May-19 09:30N 60°25' E 026°55'0 0.0
2018-May-19 09:00N 60°25' E 026°55'0 0.0
2018-May-19 08:27N 60°25' E 026°55'0 0.0
2018-May-19 07:59N 60°25' E 026°55'0 0.0
2018-May-19 07:29N 60°25' E 026°55'0 0.0
2018-May-19 06:59N 60°25' E 026°55'0 0.0
2018-May-19 06:29N 60°25' E 026°55'0 0.0
2018-May-19 05:59N 60°25' E 026°55'0 0.0
2018-May-19 05:28N 60°25' E 026°55'0 0.0
2018-May-19 05:00N 60°25' E 026°55'0 0.0
2018-May-19 04:29N 60°25' E 026°55'0 0.0
2018-May-19 03:59N 60°25' E 026°55'0 0.0
2018-May-19 03:30N 60°25' E 026°55'0 0.0
2018-May-19 03:00N 60°25' E 026°55'0 0.0
2018-May-19 02:30N 60°25' E 026°55'0 0.0
2018-May-19 01:57N 60°25' E 026°55'0 0.0
2018-May-19 01:30N 60°25' E 026°55'0 0.0
2018-May-19 00:59N 60°25' E 026°55'0 0.0
2018-May-19 00:29N 60°25' E 026°55'0 0.0
2018-May-18 23:59N 60°25' E 026°55'0 0.0
2018-May-18 23:29N 60°25' E 026°55'0 0.0
2018-May-18 22:58N 60°25' E 026°55'0 0.0
2018-May-18 22:28N 60°25' E 026°55'0 0.0
2018-May-18 21:58N 60°25' E 026°55'0 0.0
2018-May-18 21:28N 60°25' E 026°55'0 0.0
2018-May-18 20:58N 60°25' E 026°55'0 0.0
2018-May-18 20:30N 60°25' E 026°55'0 0.0
2018-May-18 20:00N 60°25' E 026°55'0 0.0
2018-May-18 19:30N 60°25' E 026°55'0 0.0
2018-May-18 19:00N 60°25' E 026°55'0 0.0
2018-May-18 18:30N 60°25' E 026°55'0 0.0
2018-May-18 17:59N 60°25' E 026°55'0 0.0
2018-May-18 17:29N 60°25' E 026°55'0 0.0
2018-May-18 16:59N 60°25' E 026°55'0 0.0
2018-May-18 16:29N 60°25' E 026°55'0 0.0
2018-May-18 15:58N 60°25' E 026°55'0 0.0
2018-May-18 15:28N 60°25' E 026°55'0 0.0
2018-May-18 14:58N 60°25' E 026°55'0 0.0
2018-May-18 14:27N 60°25' E 026°55'0 0.0
2018-May-18 13:58N 60°25' E 026°55'0 0.0
2018-May-18 13:30N 60°25' E 026°55'0 0.0
2018-May-18 13:00N 60°25' E 026°55'0 0.0
2018-May-18 12:30N 60°25' E 026°55'0 0.0
2018-May-18 12:00N 60°25' E 026°55'0 0.0
2018-May-18 11:30N 60°25' E 026°55'0 0.0
2018-May-18 11:00N 60°25' E 026°55'0 0.0
2018-May-18 10:29N 60°25' E 026°55'0 0.0
2018-May-18 09:59N 60°25' E 026°55'0 0.0
2018-May-18 09:29N 60°25' E 026°55'0 0.0
2018-May-18 09:00N 60°25' E 026°55'0 0.0
2018-May-18 08:28N 60°25' E 026°55'0 0.0
2018-May-18 07:58N 60°25' E 026°55'0 0.0
2018-May-18 07:28N 60°25' E 026°55'0 0.0
2018-May-18 07:00N 60°25' E 026°55'0 0.0
2018-May-18 06:30N 60°25' E 026°55'0 0.0
2018-May-18 06:00N 60°25' E 026°55'0 0.0
2018-May-18 05:30N 60°25' E 026°55'0 0.0
2018-May-18 04:59N 60°25' E 026°55'0 0.0
2018-May-18 04:30N 60°25' E 026°55'0 0.0
2018-May-18 03:58N 60°25' E 026°55'0 0.0
2018-May-18 03:29N 60°25' E 026°55'0 0.0
2018-May-18 02:59N 60°25' E 026°55'0 0.0
2018-May-18 02:29N 60°25' E 026°55'0 0.6
2018-May-18 02:00N 60°25' E 026°55'611.5
2018-May-18 01:30N 60°22' E 026°44'917.4
2018-May-18 01:00N 60°17' E 026°31'612.8
2018-May-18 00:30N 60°12' E 026°22'713.0
2018-May-18 00:00N 60°06' E 026°15'714.3
2018-May-17 23:30N 60°01' E 026°05'714.5
2018-May-17 23:00N 59°56' E 025°56'812.4
2018-May-17 22:22N 59°52' E 025°41'712.5
2018-May-17 21:51N 59°51' E 025°29'412.5
2018-May-17 21:30N 59°50' E 025°20'612.1
2018-May-17 21:00N 59°48' E 025°09'612.2
2018-May-17 20:29N 59°47' E 024°57'612.5
2018-May-17 20:00N 59°46' E 024°45'612.8
2018-May-17 19:30N 59°44' E 024°33'612.2
2018-May-17 19:00N 59°42' E 024°21'612.7
2018-May-17 18:30N 59°40' E 024°09'612.3
2018-May-17 18:00N 59°38' E 023°58'712.4
2018-May-17 17:29N 59°36' E 023°45'612.3
2018-May-17 17:00N 59°34' E 023°35'612.3
2018-May-17 16:30N 59°32' E 023°23'712.3
2018-May-17 15:58N 59°30' E 023°11'612.4
2018-May-17 15:30N 59°28' E 023°00'612.2
2018-May-17 15:00N 59°26' E 022°49'912.5
2018-May-17 14:17N 59°22' E 022°33'312.2
2018-May-17 14:00N 59°20' E 022°28'2311.9
2018-May-17 12:06N 59°07' E 021°52'112.0
2018-May-17 12:00N 59°06' E 021°50'611.5
2018-May-17 11:30N 59°02' E 021°42'611.3
2018-May-17 11:00N 58°58' E 021°34'611.4
2018-May-17 10:30N 58°53' E 021°28'1511.6
2018-May-17 09:13N 58°42' E 021°10'211.7
2018-May-17 09:00N 58°40' E 021°07'3 6.2
2018-May-17 08:29N 58°42' E 021°10'1 0.8
2018-May-17 07:42N 58°42' E 021°11'22711.8
2018-May-16 12:27N 55°56' E 016°24'611.9
2018-May-16 11:56N 55°53' E 016°14'612.1
2018-May-16 11:27N 55°50' E 016°06'512.0
2018-May-16 11:01N 55°48' E 015°57'611.9
2018-May-16 10:31N 55°45' E 015°48'612.0
2018-May-16 10:01N 55°42' E 015°39'612.0
2018-May-16 09:30N 55°39' E 015°29'611.9
2018-May-16 09:00N 55°36' E 015°20'611.6
2018-May-16 08:30N 55°33' E 015°11'611.8
2018-May-16 08:01N 55°30' E 015°02'611.8
2018-May-16 07:30N 55°28' E 014°53'  
Track history (hours):
 
Tides and Currents Weather Stations Pressure Air Temp Water Temp Dewpoint Dewpoint Depression Visibility Wind Speed Wind Dir Waves Ship Positions

Jonni Ritscher

Last reported at 2018-May-26 07:21 UTC. Time now 2018-May-26 07:47 UTC.
Position N 52°19' E 003°08'.

Length 177 m; draft 8.5 m.

Type: Cargo ship. MMSI: 636091136.

Date/timePositionNaut miles runAvg speedWind from/ knotsBaromVisibWave heightAir tempDewpointWater temp
2018-May-26 07:21N 52°19' E 003°08'2016.1
2018-May-26 06:06N 52°35' E 003°27'1017.1
2018-May-26 05:30N 52°43' E 003°37'816.6
2018-May-26 05:00N 52°50' E 003°45'815.7
2018-May-26 04:30N 52°55' E 003°55'815.5
2018-May-26 03:59N 53°01' E 004°05'715.3
2018-May-26 03:31N 53°05' E 004°14'814.6
2018-May-26 02:59N 53°10' E 004°24'713.9
2018-May-26 02:30N 53°16' E 004°29'714.0
2018-May-26 02:00N 53°22' E 004°33'714.0
2018-May-26 01:30N 53°28' E 004°40'815.4
2018-May-26 01:00N 53°31' E 004°52'815.9
2018-May-26 00:30N 53°34' E 005°04'816.8
2018-May-26 00:00N 53°37' E 005°17'917.2
2018-May-25 23:30N 53°40' E 005°31'917.4
2018-May-25 23:00N 53°43' E 005°45'917.3
2018-May-25 22:30N 53°45' E 005°59'917.2
2018-May-25 22:00N 53°48' E 006°13'816.9
2018-May-25 21:30N 53°51' E 006°26'4515.3
2018-May-25 18:33N 53°56' E 007°43'115.8
2018-May-25 18:29N 53°55' E 007°43'713.5
2018-May-25 18:00N 53°51' E 007°52'612.5
2018-May-25 17:30N 53°48' E 008°01'816.6
2018-May-25 17:00N 53°40' E 008°06'5 1.7
2018-May-25 14:04N 53°36' E 008°09'0 0.0
2018-May-25 11:54N 53°36' E 008°09'0 0.0
2018-May-25 11:30N 53°36' E 008°09'0 0.0
2018-May-25 11:00N 53°36' E 008°09'0 0.0
2018-May-25 10:12N 53°36' E 008°09'0 0.0
2018-May-25 09:47N 53°36' E 008°09'0 0.0
2018-May-25 09:20N 53°36' E 008°09'0 0.0
2018-May-25 08:56N 53°36' E 008°09'0 0.0
2018-May-25 08:29N 53°36' E 008°09'0 0.0
2018-May-25 07:59N 53°36' E 008°09'0 0.0
2018-May-25 07:25N 53°36' E 008°09'0 0.0
2018-May-25 06:55N 53°36' E 008°09'0 0.0
2018-May-25 05:52N 53°36' E 008°09'0 0.0
2018-May-25 05:22N 53°36' E 008°09'0 0.0
2018-May-25 04:57N 53°36' E 008°09'0 0.0
2018-May-25 04:24N 53°36' E 008°09'0 0.0
2018-May-25 03:48N 53°36' E 008°09'0 0.0
2018-May-25 01:11N 53°36' E 008°09'0 0.0
2018-May-24 21:00N 53°36' E 008°09'0 0.0
2018-May-24 20:30N 53°36' E 008°09'0 0.0
2018-May-24 20:00N 53°36' E 008°09'0 0.0
2018-May-24 19:29N 53°36' E 008°09'0 0.0
2018-May-24 18:59N 53°36' E 008°09'0 0.5
2018-May-24 18:30N 53°36' E 008°10'3 5.5
2018-May-24 18:00N 53°38' E 008°08'917.1
2018-May-24 17:29N 53°46' E 008°02'511.2
2018-May-24 17:00N 53°49' E 007°55'4615.3
2018-May-24 14:00N 54°32' E 007°25'714.9
2018-May-24 13:30N 54°39' E 007°24'7015.5
2018-May-24 09:00N 55°49' E 007°24'815.8
2018-May-24 08:30N 55°56' E 007°29'7615.6
2018-May-24 03:38N 57°08' E 008°13'215.6
2018-May-24 03:30N 57°10' E 008°14'815.2
2018-May-24 03:00N 57°17' E 008°20'714.5
2018-May-24 02:30N 57°23' E 008°28'715.1
2018-May-24 02:00N 57°26' E 008°40'815.1
2018-May-24 01:29N 57°29' E 008°54'715.1
2018-May-24 01:00N 57°33' E 009°06'815.1
2018-May-24 00:30N 57°36' E 009°19'815.2
2018-May-24 00:00N 57°39' E 009°32'815.3
2018-May-23 23:30N 57°42' E 009°45'815.6
2018-May-23 23:00N 57°46' E 009°58'816.0
2018-May-23 22:30N 57°49' E 010°11'815.9
2018-May-23 22:00N 57°50' E 010°26'815.4
2018-May-23 21:30N 57°50' E 010°41'715.1
2018-May-23 21:00N 57°46' E 010°52'815.6
2018-May-23 20:30N 57°40' E 011°02'816.0
2018-May-23 20:00N 57°35' E 011°13'816.4
2018-May-23 19:30N 57°29' E 011°24'816.2
2018-May-23 19:00N 57°22' E 011°30'816.0
2018-May-23 18:30N 57°14' E 011°35'816.1
2018-May-23 18:00N 57°06' E 011°41'815.8
2018-May-23 17:29N 56°59' E 011°45'815.6
2018-May-23 17:00N 56°52' E 011°50'8914.3
2018-May-23 10:46N 55°27' E 010°57'515.4
2018-May-23 10:25N 55°23' E 011°02'615.5
2018-May-23 10:00N 55°17' E 011°04'812.4
2018-May-23 09:23N 55°09' E 010°60'615.3
2018-May-23 09:00N 55°04' E 010°60'714.9
2018-May-23 08:30N 54°57' E 010°54'917.7
2018-May-23 08:00N 54°48' E 010°50'816.1
2018-May-23 07:30N 54°40' E 010°48'917.4
2018-May-23 07:01N 54°36' E 011°01'816.9
2018-May-23 06:30N 54°35' E 011°15'917.1
2018-May-23 06:00N 54°31' E 011°29'816.9
2018-May-23 05:31N 54°28' E 011°42'816.7
2018-May-23 05:00N 54°26' E 011°56'815.4
2018-May-23 04:30N 54°26' E 012°09'714.4
2018-May-23 04:00N 54°33' E 012°15'714.0
2018-May-23 03:30N 54°38' E 012°22'714.7
2018-May-23 03:00N 54°43' E 012°32'714.6
2018-May-23 02:30N 54°47' E 012°43'714.6
2018-May-23 02:00N 54°49' E 012°55'714.7
2018-May-23 01:30N 54°52' E 013°07'815.1
2018-May-23 01:00N 54°55' E 013°19'715.0
2018-May-23 00:30N 54°57' E 013°31'714.6
2018-May-23 00:00N 55°00' E 013°43'714.6
2018-May-22 23:30N 55°03' E 013°55'714.3
2018-May-22 23:00N 55°07' E 014°05'714.9
2018-May-22 22:30N 55°12' E 014°14'815.1
2018-May-22 22:00N 55°18' E 014°23'815.1
2018-May-22 21:30N 55°24' E 014°31'714.9
2018-May-22 21:00N 55°29' E 014°41'815.0
2018-May-22 20:30N 55°33' E 014°52'715.0
2018-May-22 20:00N 55°37' E 015°03'714.9
2018-May-22 19:30N 55°41' E 015°14'714.9
2018-May-22 19:00N 55°45' E 015°26'714.9
2018-May-22 18:30N 55°48' E 015°37'715.0
2018-May-22 18:00N 55°52' E 015°49'815.5
2018-May-22 17:30N 55°56' E 016°01'815.6
2018-May-22 17:00N 55°60' E 016°13'815.7
2018-May-22 16:30N 56°04' E 016°25'815.8
2018-May-22 16:00N 56°08' E 016°37'815.5
2018-May-22 15:30N 56°12' E 016°49'815.6
2018-May-22 15:00N 56°16' E 017°00'815.5
2018-May-22 14:30N 56°21' E 017°12'24215.5
2018-May-21 22:57N 59°22' E 022°12'715.6
2018-May-21 22:31N 59°26' E 022°23'815.5
2018-May-21 22:00N 59°31' E 022°36'815.6
2018-May-21 21:30N 59°33' E 022°50'815.8
2018-May-21 21:00N 59°36' E 023°05'815.9
2018-May-21 20:30N 59°38' E 023°20'815.7
2018-May-21 20:00N 59°40' E 023°35'815.8
2018-May-21 19:30N 59°42' E 023°50'816.0
2018-May-21 19:00N 59°44' E 024°06'816.0
2018-May-21 18:30N 59°46' E 024°21'816.1
2018-May-21 18:01N 59°48' E 024°36'816.0
2018-May-21 17:31N 59°50' E 024°52'816.1
2018-May-21 17:00N 59°51' E 025°08'815.9
2018-May-21 16:31N 59°53' E 025°23'815.7
2018-May-21 16:01N 59°55' E 025°38'815.8
2018-May-21 15:31N 59°57' E 025°53'815.7
2018-May-21 15:00N 60°01' E 026°08'815.9
2018-May-21 14:29N 60°05' E 026°21'816.0
2018-May-21 14:01N 60°09' E 026°34'815.0
2018-May-21 13:30N 60°14' E 026°46'816.7
2018-May-21 13:00N 60°22' E 026°52'4 7.4
2018-May-21 12:30N 60°25' E 026°55'0 0.1
2018-May-21 11:58N 60°25' E 026°55'0 0.0
2018-May-21 11:28N 60°25' E 026°55'0 0.0
2018-May-21 11:00N 60°25' E 026°55'0 0.0
2018-May-21 10:30N 60°25' E 026°55'0 0.0
2018-May-21 10:00N 60°25' E 026°55'0 0.0
2018-May-21 09:30N 60°25' E 026°55'0 0.0
2018-May-21 09:00N 60°25' E 026°55'0 0.0
2018-May-21 08:29N 60°25' E 026°55'0 0.0
2018-May-21 08:01N 60°25' E 026°55'0 0.0
2018-May-21 07:26N 60°25' E 026°55'0 0.0
2018-May-21 06:57N 60°25' E 026°55'0 0.0
2018-May-21 06:29N 60°25' E 026°55'0 0.0
2018-May-21 05:58N 60°25' E 026°55'0 0.0
2018-May-21 05:28N 60°25' E 026°55'0 0.0
2018-May-21 04:58N 60°25' E 026°55'0 0.0
2018-May-21 04:28N 60°25' E 026°55'0 0.0
2018-May-21 04:00N 60°25' E 026°55'0 0.0
2018-May-21 03:30N 60°25' E 026°55'0 0.0
2018-May-21 03:00N 60°25' E 026°55'0 0.0
2018-May-21 02:30N 60°25' E 026°55'0 0.0
2018-May-21 01:54N 60°25' E 026°55'0 0.0
2018-May-21 01:28N 60°25' E 026°55'0 0.0
2018-May-21 00:56N 60°25' E 026°55'0 0.0
2018-May-21 00:29N 60°25' E 026°55'0 0.0
2018-May-20 23:59N 60°25' E 026°55'0 0.0
2018-May-20 23:28N 60°25' E 026°55'0 0.0
2018-May-20 22:58N 60°25' E 026°55'0 0.0
2018-May-20 22:30N 60°25' E 026°55'0 0.0
2018-May-20 21:58N 60°25' E 026°55'0 0.0
2018-May-20 21:28N 60°25' E 026°55'0 0.0
2018-May-20 21:00N 60°25' E 026°55'0 0.0
2018-May-20 20:27N 60°25' E 026°55'0 0.0
2018-May-20 20:00N 60°25' E 026°55'0 0.0
2018-May-20 19:30N 60°25' E 026°55'0 0.0
2018-May-20 19:00N 60°25' E 026°55'0 0.0
2018-May-20 18:29N 60°25' E 026°55'0 0.0
2018-May-20 17:59N 60°25' E 026°55'0 0.0
2018-May-20 17:28N 60°25' E 026°55'0 0.0
2018-May-20 16:59N 60°25' E 026°55'0 0.0
2018-May-20 16:25N 60°25' E 026°55'0 0.0
2018-May-20 15:58N 60°25' E 026°55'0 0.0
2018-May-20 15:25N 60°25' E 026°55'0 0.0
2018-May-20 14:55N 60°25' E 026°55'0 0.0
2018-May-20 14:28N 60°25' E 026°55'0 0.0
2018-May-20 14:00N 60°25' E 026°55'0 0.0
2018-May-20 13:30N 60°25' E 026°55'0 0.0
2018-May-20 13:00N 60°25' E 026°55'0 0.0
2018-May-20 12:30N 60°25' E 026°55'0 0.0
2018-May-20 12:00N 60°25' E 026°55'0 0.0
2018-May-20 11:29N 60°25' E 026°55'0 0.0
2018-May-20 10:59N 60°25' E 026°55'0 0.0
2018-May-20 10:29N 60°25' E 026°55'0 0.0
2018-May-20 09:59N 60°25' E 026°55'0 0.0
2018-May-20 09:28N 60°25' E 026°55'0 0.0
2018-May-20 08:58N 60°25' E 026°55'0 0.0
2018-May-20 08:28N 60°25' E 026°55'0 0.0
2018-May-20 07:58N 60°25' E 026°55'0 0.0
2018-May-20 07:25N 60°25' E 026°55'0 0.0
2018-May-20 06:57N 60°25' E 026°55'0 0.0
2018-May-20 06:27N 60°25' E 026°55'0 0.0
2018-May-20 06:00N 60°25' E 026°55'0 0.0
2018-May-20 05:30N 60°25' E 026°55'0 0.0
2018-May-20 04:56N 60°25' E 026°55'0 0.0
2018-May-20 04:30N 60°25' E 026°55'0 0.0
2018-May-20 03:59N 60°25' E 026°55'0 0.0
2018-May-20 03:30N 60°25' E 026°55'0 0.0
2018-May-20 03:00N 60°25' E 026°55'0 0.0
2018-May-20 02:19N 60°25' E 026°55'0 0.0
2018-May-20 01:55N 60°25' E 026°55'0 0.0
2018-May-20 01:25N 60°25' E 026°55'0 0.0
2018-May-20 00:55N 60°25' E 026°55'0 0.0
2018-May-20 00:25N 60°25' E 026°55'0 0.0
2018-May-20 00:00N 60°25' E 026°55'0 0.0
2018-May-19 23:30N 60°25' E 026°55'0 0.0
2018-May-19 22:59N 60°25' E 026°55'0 0.0
2018-May-19 22:30N 60°25' E 026°55'0 0.0
2018-May-19 21:59N 60°25' E 026°55'0 0.0
2018-May-19 21:29N 60°25' E 026°55'0 0.0
2018-May-19 20:56N 60°25' E 026°55'0 0.0
2018-May-19 20:29N 60°25' E 026°55'0 0.0
2018-May-19 19:58N 60°25' E 026°55'0 0.0
2018-May-19 19:27N 60°25' E 026°55'0 0.0
2018-May-19 18:54N 60°25' E 026°55'0 0.0
2018-May-19 18:28N 60°25' E 026°55'0 0.0
2018-May-19 17:58N 60°25' E 026°55'0 0.0
2018-May-19 17:28N 60°25' E 026°55'0 0.0
2018-May-19 17:00N 60°25' E 026°55'0 0.0
2018-May-19 16:30N 60°25' E 026°55'0 0.0
2018-May-19 16:00N 60°25' E 026°55'0 0.0
2018-May-19 15:29N 60°25' E 026°55'0 0.0
2018-May-19 14:59N 60°25' E 026°55'0 0.0
2018-May-19 14:29N 60°25' E 026°55'0 0.0
2018-May-19 13:59N 60°25' E 026°55'0 0.0
2018-May-19 13:29N 60°25' E 026°55'0 0.0
2018-May-19 12:59N 60°25' E 026°55'0 0.0
2018-May-19 12:28N 60°25' E 026°55'0 0.0
2018-May-19 11:58N 60°25' E 026°55'0 0.0
2018-May-19 11:28N 60°25' E 026°55'0 0.0
2018-May-19 10:58N 60°25' E 026°55'0 0.0
2018-May-19 10:30N 60°25' E 026°55'0 0.0
2018-May-19 10:00N 60°25' E 026°55'0 0.0
2018-May-19 09:30N 60°25' E 026°55'0 0.0
2018-May-19 09:00N 60°25' E 026°55'0 0.0
2018-May-19 08:27N 60°25' E 026°55'0 0.0
2018-May-19 07:59N 60°25' E 026°55'0 0.0
2018-May-19 07:29N 60°25' E 026°55'0 0.0
2018-May-19 06:59N 60°25' E 026°55'0 0.0
2018-May-19 06:29N 60°25' E 026°55'0 0.0
2018-May-19 05:59N 60°25' E 026°55'0 0.0
2018-May-19 05:28N 60°25' E 026°55'0 0.0
2018-May-19 05:00N 60°25' E 026°55'0 0.0
2018-May-19 04:29N 60°25' E 026°55'0 0.0
2018-May-19 03:59N 60°25' E 026°55'0 0.0
2018-May-19 03:30N 60°25' E 026°55'0 0.0
2018-May-19 03:00N 60°25' E 026°55'0 0.0
2018-May-19 02:30N 60°25' E 026°55'0 0.0
2018-May-19 01:57N 60°25' E 026°55'0 0.0
2018-May-19 01:30N 60°25' E 026°55'0 0.0
2018-May-19 00:59N 60°25' E 026°55'0 0.0
2018-May-19 00:29N 60°25' E 026°55'0 0.0
2018-May-18 23:59N 60°25' E 026°55'0 0.0
2018-May-18 23:29N 60°25' E 026°55'0 0.0
2018-May-18 22:58N 60°25' E 026°55'0 0.0
2018-May-18 22:28N 60°25' E 026°55'0 0.0
2018-May-18 21:58N 60°25' E 026°55'0 0.0
2018-May-18 21:28N 60°25' E 026°55'0 0.0
2018-May-18 20:58N 60°25' E 026°55'0 0.0
2018-May-18 20:30N 60°25' E 026°55'0 0.0
2018-May-18 20:00N 60°25' E 026°55'0 0.0
2018-May-18 19:30N 60°25' E 026°55'0 0.0
2018-May-18 19:00N 60°25' E 026°55'0 0.0
2018-May-18 18:30N 60°25' E 026°55'0 0.0
2018-May-18 17:59N 60°25' E 026°55'0 0.0
2018-May-18 17:29N 60°25' E 026°55'0 0.0
2018-May-18 16:59N 60°25' E 026°55'0 0.0
2018-May-18 16:29N 60°25' E 026°55'0 0.0
2018-May-18 15:58N 60°25' E 026°55'0 0.0
2018-May-18 15:28N 60°25' E 026°55'0 0.0
2018-May-18 14:58N 60°25' E 026°55'0 0.0
2018-May-18 14:27N 60°25' E 026°55'0 0.0
2018-May-18 13:58N 60°25' E 026°55'0 0.0
2018-May-18 13:30N 60°25' E 026°55'0 0.0
2018-May-18 13:00N 60°25' E 026°55'0 0.0
2018-May-18 12:30N 60°25' E 026°55'0 0.0
2018-May-18 12:00N 60°25' E 026°55'0 0.0
2018-May-18 11:30N 60°25' E 026°55'0 0.0
2018-May-18 11:00N 60°25' E 026°55'0 0.0
2018-May-18 10:29N 60°25' E 026°55'0 0.0
2018-May-18 09:59N 60°25' E 026°55'0 0.0
2018-May-18 09:29N 60°25' E 026°55'0 0.0
2018-May-18 09:00N 60°25' E 026°55'0 0.0
2018-May-18 08:28N 60°25' E 026°55'0 0.0
2018-May-18 07:58N 60°25' E 026°55'0 0.0
2018-May-18 07:28N 60°25' E 026°55'0 0.0
2018-May-18 07:00N 60°25' E 026°55'0 0.0
2018-May-18 06:30N 60°25' E 026°55'0 0.0
2018-May-18 06:00N 60°25' E 026°55'0 0.0
2018-May-18 05:30N 60°25' E 026°55'0 0.0
2018-May-18 04:59N 60°25' E 026°55'0 0.0
2018-May-18 04:30N 60°25' E 026°55'0 0.0
2018-May-18 03:58N 60°25' E 026°55'0 0.0
2018-May-18 03:29N 60°25' E 026°55'0 0.0
2018-May-18 02:59N 60°25' E 026°55'0 0.0
2018-May-18 02:29N 60°25' E 026°55'0 0.6
2018-May-18 02:00N 60°25' E 026°55'611.5
2018-May-18 01:30N 60°22' E 026°44'917.4
2018-May-18 01:00N 60°17' E 026°31'612.8
2018-May-18 00:30N 60°12' E 026°22'713.0
2018-May-18 00:00N 60°06' E 026°15'714.3
2018-May-17 23:30N 60°01' E 026°05'714.5
2018-May-17 23:00N 59°56' E 025°56'812.4
2018-May-17 22:22N 59°52' E 025°41'712.5
2018-May-17 21:51N 59°51' E 025°29'412.5
2018-May-17 21:30N 59°50' E 025°20'612.1
2018-May-17 21:00N 59°48' E 025°09'612.2
2018-May-17 20:29N 59°47' E 024°57'612.5
2018-May-17 20:00N 59°46' E 024°45'612.8
2018-May-17 19:30N 59°44' E 024°33'612.2
2018-May-17 19:00N 59°42' E 024°21'612.7
2018-May-17 18:30N 59°40' E 024°09'612.3
2018-May-17 18:00N 59°38' E 023°58'712.4
2018-May-17 17:29N 59°36' E 023°45'612.3
2018-May-17 17:00N 59°34' E 023°35'612.3
2018-May-17 16:30N 59°32' E 023°23'712.3
2018-May-17 15:58N 59°30' E 023°11'612.4
2018-May-17 15:30N 59°28' E 023°00'612.2
2018-May-17 15:00N 59°26' E 022°49'912.5
2018-May-17 14:17N 59°22' E 022°33'312.2
2018-May-17 14:00N 59°20' E 022°28'2311.9
2018-May-17 12:06N 59°07' E 021°52'112.0
2018-May-17 12:00N 59°06' E 021°50'611.5
2018-May-17 11:30N 59°02' E 021°42'611.3
2018-May-17 11:00N 58°58' E 021°34'611.4
2018-May-17 10:30N 58°53' E 021°28'1511.6
2018-May-17 09:13N 58°42' E 021°10'211.7
2018-May-17 09:00N 58°40' E 021°07'3 6.2
2018-May-17 08:29N 58°42' E 021°10'1 0.8
2018-May-17 07:42N 58°42' E 021°11'22711.8
2018-May-16 12:27N 55°56' E 016°24'611.9
2018-May-16 11:56N 55°53' E 016°14'612.1
2018-May-16 11:27N 55°50' E 016°06'512.0
2018-May-16 11:01N 55°48' E 015°57'611.9
2018-May-16 10:31N 55°45' E 015°48'612.0
2018-May-16 10:01N 55°42' E 015°39'612.0
2018-May-16 09:30N 55°39' E 015°29'611.9
2018-May-16 09:00N 55°36' E 015°20'611.6
2018-May-16 08:30N 55°33' E 015°11'611.8
2018-May-16 08:01N 55°30' E 015°02'611.8
2018-May-16 07:30N 55°28' E 014°53'  

Dump ship's entire track history